Pagina principale
METAR-TAF:

METAR-TAF

Aeroporti :

Aeroporto di Bologna-Borgo Panigale

Bologna, Italia

latitudine: 44-32N, longitudine: 011-18E, altezza: 36 m

Osservazione

Il bollettino è stato emesso 24 minuti fa, alle 02:20 UTC
Vento 5 kt da sud/sud-ovest
Temperature 14°C
Umidità 94%
Pressione 1017 hPa
Visibilità: 4000 m
foschia

METAR: LIPE 190220Z 21005KT 4000 BR NSC 14/13 Q1017

Ora: 04:44 (02:44 UTC)

Previsione

Il bollettino è stato emesso 3 ore e 44 minuti fa, alle 23:00 UTC
Previsione valida dal 19 alle 00 UTC al 19 alle 24 UTC
Vento 5 kt da direzioni variabili
Visibilità: 6000 m
Poco nuvoloso ad un'altezza di 6000 ft
Temporaneamente
dal 19 alle 02 UTC al 19 alle 07 UTC
Visibilità: 2000 m
foschia

TAF: LIPE 182300Z 1900/1924 VRB05KT 6000 FEW060 TEMPO 1902/1907 2000 BR

Osservazioni e previsioni meteorologiche di più di 4000 aeroporti (messaggi METAR e TAF).

Le stazioni disponibili sono rappresentate dai dischi gialli e rossi sulla carta.

Puntare il mouse per vedere il nome della stazione.

Clicca sopra per visualizzare le osservazioni e previsioni meteorologiche.

Per cambiare la mappa : fare clic sui pulsanti verdi con una croce nera per ingrandire, il pulsante verde con un trattino per diminuire, o sulla freccia verde per le mappe adiacenti.


METAR-TAF: